Time,TemperatureF,DewpointF,PressureIn,WindDirection,WindDirectionDegrees,WindSpeedMPH,WindSpeedGustMPH,Humidity,HourlyPrecipIn,Conditions,Clouds,dailyrainin,SoftwareType,DateUTC
2013-02-12 00:02:00,60.0,-99.9,29.88,NNE,24,23.0,27.0,-999,-99.99,,,-99.99,,2013-02-12 06:02:00,
2013-02-12 00:12:00,60.0,-99.9,29.88,NNE,24,23.0,27.0,-999,-99.99,,,-99.99,,2013-02-12 06:12:00,
2013-02-12 00:22:00,60.0,-99.9,29.88,NNE,24,23.0,27.0,-999,-99.99,,,-99.99,,2013-02-12 06:22:00,
2013-02-12 00:42:00,61.0,-99.9,29.88,NNE,27,22.0,26.0,-999,-99.99,,,-99.99,,2013-02-12 06:42:00,
2013-02-12 00:52:00,61.0,-99.9,29.88,NNE,25,20.0,24.0,-999,-99.99,,,-99.99,,2013-02-12 06:52:00,
2013-02-12 01:02:00,61.0,-99.9,29.87,NNE,24,22.0,24.0,-999,-99.99,,,-99.99,,2013-02-12 07:02:00,
2013-02-12 01:12:00,61.0,-99.9,29.86,NNE,27,21.0,26.0,-999,-99.99,,,-99.99,,2013-02-12 07:12:00,
2013-02-12 01:22:00,61.0,-99.9,29.86,NNE,22,23.0,26.0,-999,-99.99,,,-99.99,,2013-02-12 07:22:00,
2013-02-12 01:32:00,61.0,-99.9,29.86,NNE,29,22.0,25.0,-999,-99.99,,,-99.99,,2013-02-12 07:32:00,
2013-02-12 01:42:00,61.0,-99.9,29.86,NNE,29,22.0,25.0,-999,-99.99,,,-99.99,,2013-02-12 07:42:00,
2013-02-12 01:52:00,61.0,-99.9,29.86,NNE,29,22.0,25.0,-999,-99.99,,,-99.99,,2013-02-12 07:52:00,
2013-02-12 02:11:00,61.0,-99.9,29.85,NNE,25,21.0,24.0,-999,-99.99,,,-99.99,,2013-02-12 08:11:00,
2013-02-12 02:22:00,61.0,-99.9,29.85,NNE,26,22.0,25.0,-999,-99.99,,,-99.99,,2013-02-12 08:22:00,
2013-02-12 02:32:00,61.0,-99.9,29.85,NNE,18,20.0,22.0,-999,-99.99,,,-99.99,,2013-02-12 08:32:00,
2013-02-12 02:42:00,61.0,-99.9,29.85,NNE,16,21.0,23.0,-999,-99.99,,,-99.99,,2013-02-12 08:42:00,
2013-02-12 02:52:00,61.0,-99.9,29.85,NNE,14,18.0,21.0,-999,-99.99,,,-99.99,,2013-02-12 08:52:00,
2013-02-12 03:02:00,61.0,-99.9,29.84,North,6,20.0,24.0,-999,-99.99,,,-99.99,,2013-02-12 09:02:00,
2013-02-12 03:11:00,61.0,-99.9,29.84,North,9,20.0,22.0,-999,-99.99,,,-99.99,,2013-02-12 09:11:00,
2013-02-12 03:22:00,61.0,-99.9,29.83,North,8,21.0,23.0,-999,-99.99,,,-99.99,,2013-02-12 09:22:00,
2013-02-12 03:32:00,61.0,-99.9,29.82,NNE,17,22.0,24.0,-999,-99.99,,,-99.99,,2013-02-12 09:32:00,
2013-02-12 03:42:00,61.0,-99.9,29.82,NNE,15,21.0,24.0,-999,-99.99,,,-99.99,,2013-02-12 09:42:00,
2013-02-12 03:52:00,61.0,-99.9,29.83,NNE,16,20.0,23.0,-999,-99.99,,,-99.99,,2013-02-12 09:52:00,
2013-02-12 04:02:00,61.0,-99.9,29.83,NNE,14,15.0,22.0,-999,-99.99,,,-99.99,,2013-02-12 10:02:00,
2013-02-12 04:11:00,61.0,-99.9,29.83,North,8,18.0,21.0,-999,-99.99,,,-99.99,,2013-02-12 10:11:00,
2013-02-12 04:22:00,61.0,-99.9,29.82,North,8,20.0,24.0,-999,-99.99,,,-99.99,,2013-02-12 10:22:00,
2013-02-12 04:32:00,61.0,-99.9,29.81,NNE,12,19.0,23.0,-999,-99.99,,,-99.99,,2013-02-12 10:32:00,
2013-02-12 04:43:00,61.0,-99.9,29.81,North,6,19.0,21.0,-999,-99.99,,,-99.99,,2013-02-12 10:43:00,
2013-02-12 04:52:00,62.0,-99.9,29.82,North,5,19.0,21.0,-999,-99.99,,,-99.99,,2013-02-12 10:52:00,
2013-02-12 05:02:00,62.0,-99.9,29.82,North,351,14.0,17.0,-999,-99.99,,,-99.99,,2013-02-12 11:02:00,
2013-02-12 05:11:00,61.0,-99.9,29.82,North,356,15.0,17.0,-999,-99.99,,,-99.99,,2013-02-12 11:11:00,
2013-02-12 05:22:00,61.0,-99.9,29.81,North,352,16.0,18.0,-999,-99.99,,,-99.99,,2013-02-12 11:22:00,
2013-02-12 05:32:00,61.0,-99.9,29.81,North,353,18.0,20.0,-999,-99.99,,,-99.99,,2013-02-12 11:32:00,
2013-02-12 05:42:00,61.0,-99.9,29.82,North,354,17.0,23.0,-999,-99.99,,,-99.99,,2013-02-12 11:42:00,
2013-02-12 05:53:00,61.0,-99.9,29.81,NNW,348,13.0,16.0,-999,-99.99,,,-99.99,,2013-02-12 11:53:00,
2013-02-12 06:02:00,61.0,-99.9,29.83,NNW,347,16.0,19.0,-999,-99.99,,,-99.99,,2013-02-12 12:02:00,
2013-02-12 06:11:00,62.0,-99.9,29.82,North,355,17.0,20.0,-999,-99.99,,,-99.99,,2013-02-12 12:11:00,
2013-02-12 06:22:00,61.0,-99.9,29.81,North,3,16.0,17.0,-999,-99.99,,,-99.99,,2013-02-12 12:22:00,
2013-02-12 06:32:00,61.0,-99.9,29.81,North,3,13.0,16.0,-999,-99.99,,,-99.99,,2013-02-12 12:32:00,
2013-02-12 06:42:00,61.0,-99.9,29.81,North,3,12.0,14.0,-999,-99.99,,,-99.99,,2013-02-12 12:42:00,
2013-02-12 06:53:00,61.0,-99.9,29.80,North,5,13.0,15.0,-999,-99.99,,,-99.99,,2013-02-12 12:53:00,
2013-02-12 07:02:00,61.0,-99.9,29.80,North,1,10.0,12.0,-999,-99.99,,,-99.99,,2013-02-12 13:02:00,
2013-02-12 07:11:00,61.0,-99.9,29.80,North,351,11.0,13.0,-999,-99.99,,,-99.99,,2013-02-12 13:11:00,
2013-02-12 07:22:00,60.0,-99.9,29.81,NNW,347,12.0,13.0,-999,-99.99,,,-99.99,,2013-02-12 13:22:00,
2013-02-12 07:32:00,61.0,-99.9,29.82,North,353,11.0,12.0,-999,-99.99,,,-99.99,,2013-02-12 13:32:00,
2013-02-12 07:42:00,60.0,-99.9,29.82,North,358,11.0,13.0,-999,-99.99,,,-99.99,,2013-02-12 13:42:00,
2013-02-12 07:52:00,61.0,-99.9,29.83,North,3,10.0,12.0,-999,-99.99,,,-99.99,,2013-02-12 13:52:00,
2013-02-12 08:01:00,61.0,-99.9,29.83,North,355,11.0,12.0,-999,-99.99,,,-99.99,,2013-02-12 14:01:00,
2013-02-12 08:12:00,61.0,-99.9,29.83,North,5,11.0,12.0,-999,-99.99,,,-99.99,,2013-02-12 14:12:00,
2013-02-12 08:22:00,61.0,-99.9,29.83,North,7,8.0,10.0,-999,-99.99,,,-99.99,,2013-02-12 14:22:00,
2013-02-12 08:32:00,61.0,-99.9,29.84,NNW,334,6.0,7.0,-999,-99.99,,,-99.99,,2013-02-12 14:32:00,
2013-02-12 08:42:00,61.0,-99.9,29.84,NW,323,7.0,9.0,-999,-99.99,,,-99.99,,2013-02-12 14:42:00,
2013-02-12 08:52:00,61.0,-99.9,29.84,NNW,343,6.0,9.0,-999,-99.99,,,-99.99,,2013-02-12 14:52:00,
2013-02-12 09:02:00,61.0,-99.9,29.84,NW,312,8.0,10.0,-999,-99.99,,,-99.99,,2013-02-12 15:02:00,
2013-02-12 09:11:00,61.0,-99.9,29.85,NW,316,7.0,9.0,-999,-99.99,,,-99.99,,2013-02-12 15:11:00,
2013-02-12 09:22:00,61.0,-99.9,29.85,WNW,303,6.0,9.0,-999,-99.99,,,-99.99,,2013-02-12 15:22:00,
2013-02-12 09:32:00,61.0,-99.9,29.86,NW,304,8.0,10.0,-999,-99.99,,,-99.99,,2013-02-12 15:32:00,
2013-02-12 09:42:00,61.0,-99.9,29.87,WNW,301,9.0,11.0,-999,-99.99,,,-99.99,,2013-02-12 15:42:00,
2013-02-12 09:52:00,61.0,-99.9,29.86,NW,321,6.0,10.0,-999,-99.99,,,-99.99,,2013-02-12 15:52:00,
2013-02-12 10:02:00,61.0,-99.9,29.86,NW,315,9.0,11.0,-999,-99.99,,,-99.99,,2013-02-12 16:02:00,
2013-02-12 10:11:00,61.0,-99.9,29.86,NW,308,11.0,12.0,-999,-99.99,,,-99.99,,2013-02-12 16:11:00,
2013-02-12 10:22:00,61.0,-99.9,29.87,WNW,293,10.0,13.0,-999,-99.99,,,-99.99,,2013-02-12 16:22:00,
2013-02-12 10:32:00,60.0,-99.9,29.88,NW,304,8.0,13.0,-999,-99.99,,,-99.99,,2013-02-12 16:32:00,
2013-02-12 10:42:00,61.0,-99.9,29.88,NW,317,10.0,12.0,-999,-99.99,,,-99.99,,2013-02-12 16:42:00,
2013-02-12 10:52:00,61.0,-99.9,29.87,NW,319,10.0,13.0,-999,-99.99,,,-99.99,,2013-02-12 16:52:00,
2013-02-12 11:01:00,61.0,-99.9,29.87,NW,318,11.0,13.0,-999,-99.99,,,-99.99,,2013-02-12 17:01:00,
2013-02-12 11:12:00,61.0,-99.9,29.87,NW,321,11.0,13.0,-999,-99.99,,,-99.99,,2013-02-12 17:12:00,
2013-02-12 11:21:00,61.0,-99.9,29.88,NW,316,9.0,11.0,-999,-99.99,,,-99.99,,2013-02-12 17:21:00,
2013-02-12 11:32:00,62.0,-99.9,29.88,NW,308,11.0,13.0,-999,-99.99,,,-99.99,,2013-02-12 17:32:00,
2013-02-12 11:42:00,62.0,-99.9,29.88,NW,308,11.0,13.0,-999,-99.99,,,-99.99,,2013-02-12 17:42:00,
2013-02-12 11:52:00,62.0,-99.9,29.87,NW,308,9.0,11.0,-999,-99.99,,,-99.99,,2013-02-12 17:52:00,
2013-02-12 12:02:00,62.0,-99.9,29.87,WNW,296,10.0,11.0,-999,-99.99,,,-99.99,,2013-02-12 18:02:00,
2013-02-12 12:12:00,62.0,-99.9,29.87,NW,306,10.0,13.0,-999,-99.99,,,-99.99,,2013-02-12 18:12:00,
2013-02-12 12:23:00,63.0,-99.9,29.87,NW,315,14.0,17.0,-999,-99.99,,,-99.99,,2013-02-12 18:23:00,
2013-02-12 12:32:00,63.0,-99.9,29.87,NW,316,14.0,19.0,-999,-99.99,,,-99.99,,2013-02-12 18:32:00,
2013-02-12 12:42:00,63.0,-99.9,29.86,NW,305,12.0,15.0,-999,-99.99,,,-99.99,,2013-02-12 18:42:00,
2013-02-12 12:52:00,64.0,-99.9,29.86,NW,316,11.0,14.0,-999,-99.99,,,-99.99,,2013-02-12 18:52:00,
2013-02-12 13:02:00,63.0,-99.9,29.85,NW,325,14.0,16.0,-999,-99.99,,,-99.99,,2013-02-12 19:02:00,
2013-02-12 13:11:00,64.0,-99.9,29.85,NW,315,14.0,18.0,-999,-99.99,,,-99.99,,2013-02-12 19:11:00,
2013-02-12 13:22:00,62.0,-99.9,29.86,NW,326,14.0,19.0,-999,-99.99,,,-99.99,,2013-02-12 19:22:00,
2013-02-12 13:32:00,63.0,-99.9,29.85,NW,317,17.0,20.0,-999,-99.99,,,-99.99,,2013-02-12 19:32:00,
2013-02-12 13:42:00,63.0,-99.9,29.85,NW,321,18.0,22.0,-999,-99.99,,,-99.99,,2013-02-12 19:42:00,
2013-02-12 13:52:00,62.0,-99.9,29.85,NW,321,15.0,18.0,-999,-99.99,,,-99.99,,2013-02-12 19:52:00,
2013-02-12 14:01:00,62.0,-99.9,29.85,NNW,327,17.0,21.0,-999,-99.99,,,-99.99,,2013-02-12 20:01:00,
2013-02-12 14:11:00,62.0,-99.9,29.85,NW,320,17.0,24.0,-999,-99.99,,,-99.99,,2013-02-12 20:11:00,
2013-02-12 14:22:00,62.0,-99.9,29.85,West,272,10.0,24.0,-999,-99.99,,,-99.99,,2013-02-12 20:22:00,
2013-02-12 14:32:00,62.0,-99.9,29.85,West,272,10.0,24.0,-999,-99.99,,,-99.99,,2013-02-12 20:32:00,
2013-02-12 14:42:00,62.0,-99.9,29.85,West,272,10.0,24.0,-999,-99.99,,,-99.99,,2013-02-12 20:42:00,
2013-02-12 14:52:00,62.0,-99.9,29.85,West,272,10.0,24.0,-999,-99.99,,,-99.99,,2013-02-12 20:52:00,